sensor_id;sensor_type;location;lat;lon;timestamp;P1;durP1;ratioP1;P2;durP2;ratioP2
53857;SDS011;39763;51.188;6.690;2022-08-19T00:00:41;19.05;;;13.77;;
53857;SDS011;39763;51.188;6.690;2022-08-19T00:02:14;18.40;;;14.50;;
53857;SDS011;39763;51.188;6.690;2022-08-19T00:03:47;19.92;;;15.05;;
53857;SDS011;39763;51.188;6.690;2022-08-19T00:05:19;22.42;;;15.07;;
53857;SDS011;39763;51.188;6.690;2022-08-19T00:06:52;20.20;;;15.48;;
53857;SDS011;39763;51.188;6.690;2022-08-19T00:08:24;19.08;;;14.75;;
53857;SDS011;39763;51.188;6.690;2022-08-19T00:09:56;18.02;;;13.98;;
53857;SDS011;39763;51.188;6.690;2022-08-19T00:11:28;19.90;;;15.25;;
53857;SDS011;39763;51.188;6.690;2022-08-19T00:13:00;22.77;;;15.07;;
53857;SDS011;39763;51.188;6.690;2022-08-19T00:14:32;20.60;;;14.85;;
53857;SDS011;39763;51.188;6.690;2022-08-19T00:16:03;19.30;;;15.18;;
53857;SDS011;39763;51.188;6.690;2022-08-19T00:17:37;20.83;;;14.93;;
53857;SDS011;39763;51.188;6.690;2022-08-19T00:19:13;19.35;;;14.30;;
53857;SDS011;39763;51.188;6.690;2022-08-19T00:20:46;20.42;;;15.90;;
53857;SDS011;39763;51.188;6.690;2022-08-19T00:22:17;20.75;;;15.25;;
53857;SDS011;39763;51.188;6.690;2022-08-19T00:23:49;19.98;;;15.52;;
53857;SDS011;39763;51.188;6.690;2022-08-19T00:25:21;19.90;;;14.48;;
53857;SDS011;39763;51.188;6.690;2022-08-19T00:27:01;19.45;;;15.35;;
53857;SDS011;39763;51.188;6.690;2022-08-19T00:28:53;19.60;;;15.70;;
53857;SDS011;39763;51.188;6.690;2022-08-19T00:30:25;21.20;;;15.70;;
53857;SDS011;39763;51.188;6.690;2022-08-19T00:31:58;22.45;;;16.05;;
53857;SDS011;39763;51.188;6.690;2022-08-19T00:33:31;22.90;;;16.17;;
53857;SDS011;39763;51.188;6.690;2022-08-19T00:35:05;20.65;;;16.20;;
53857;SDS011;39763;51.188;6.690;2022-08-19T00:36:38;22.65;;;17.30;;
53857;SDS011;39763;51.188;6.690;2022-08-19T00:38:10;21.42;;;16.40;;
53857;SDS011;39763;51.188;6.690;2022-08-19T00:39:42;22.15;;;17.65;;
53857;SDS011;39763;51.188;6.690;2022-08-19T00:41:14;24.88;;;17.95;;
53857;SDS011;39763;51.188;6.690;2022-08-19T00:42:48;26.02;;;17.95;;
53857;SDS011;39763;51.188;6.690;2022-08-19T00:44:21;23.73;;;18.02;;
53857;SDS011;39763;51.188;6.690;2022-08-19T00:45:57;20.88;;;17.35;;
53857;SDS011;39763;51.188;6.690;2022-08-19T00:47:29;23.75;;;18.15;;
53857;SDS011;39763;51.188;6.690;2022-08-19T00:49:10;24.13;;;18.35;;
53857;SDS011;39763;51.188;6.690;2022-08-19T00:50:47;23.73;;;18.08;;
53857;SDS011;39763;51.188;6.690;2022-08-19T00:52:23;24.48;;;18.55;;
53857;SDS011;39763;51.188;6.690;2022-08-19T00:53:58;24.08;;;18.77;;
53857;SDS011;39763;51.188;6.690;2022-08-19T00:55:32;24.48;;;17.48;;
53857;SDS011;39763;51.188;6.690;2022-08-19T00:57:05;23.95;;;18.25;;
53857;SDS011;39763;51.188;6.690;2022-08-19T00:58:39;22.67;;;18.02;;
53857;SDS011;39763;51.188;6.690;2022-08-19T01:00:16;24.05;;;17.50;;
53857;SDS011;39763;51.188;6.690;2022-08-19T01:01:50;25.45;;;19.58;;
53857;SDS011;39763;51.188;6.690;2022-08-19T01:03:22;25.98;;;19.48;;
53857;SDS011;39763;51.188;6.690;2022-08-19T01:04:54;26.70;;;19.58;;
53857;SDS011;39763;51.188;6.690;2022-08-19T01:06:27;24.15;;;19.55;;
53857;SDS011;39763;51.188;6.690;2022-08-19T01:08:00;23.80;;;18.08;;
53857;SDS011;39763;51.188;6.690;2022-08-19T01:09:34;23.10;;;17.85;;
53857;SDS011;39763;51.188;6.690;2022-08-19T01:11:07;22.45;;;16.48;;
53857;SDS011;39763;51.188;6.690;2022-08-19T01:12:40;22.40;;;17.88;;
53857;SDS011;39763;51.188;6.690;2022-08-19T01:14:12;21.42;;;17.15;;
53857;SDS011;39763;51.188;6.690;2022-08-19T01:15:46;22.70;;;16.75;;
53857;SDS011;39763;51.188;6.690;2022-08-19T01:17:21;22.75;;;18.48;;
53857;SDS011;39763;51.188;6.690;2022-08-19T01:18:53;22.65;;;19.02;;
53857;SDS011;39763;51.188;6.690;2022-08-19T01:20:25;21.70;;;18.00;;
53857;SDS011;39763;51.188;6.690;2022-08-19T01:21:59;25.60;;;17.27;;
53857;SDS011;39763;51.188;6.690;2022-08-19T01:23:48;24.45;;;17.42;;
53857;SDS011;39763;51.188;6.690;2022-08-19T01:25:22;22.02;;;17.73;;
53857;SDS011;39763;51.188;6.690;2022-08-19T01:26:59;21.77;;;16.48;;
53857;SDS011;39763;51.188;6.690;2022-08-19T01:28:31;21.23;;;15.85;;
53857;SDS011;39763;51.188;6.690;2022-08-19T01:30:11;21.92;;;16.48;;
53857;SDS011;39763;51.188;6.690;2022-08-19T01:31:44;22.27;;;16.83;;
53857;SDS011;39763;51.188;6.690;2022-08-19T01:33:16;22.83;;;17.55;;
53857;SDS011;39763;51.188;6.690;2022-08-19T01:34:48;21.30;;;16.83;;
53857;SDS011;39763;51.188;6.690;2022-08-19T01:36:22;22.42;;;17.02;;
53857;SDS011;39763;51.188;6.690;2022-08-19T01:37:59;22.85;;;17.05;;
53857;SDS011;39763;51.188;6.690;2022-08-19T01:39:34;20.20;;;16.17;;
53857;SDS011;39763;51.188;6.690;2022-08-19T01:41:05;21.08;;;16.38;;
53857;SDS011;39763;51.188;6.690;2022-08-19T01:42:41;24.73;;;16.17;;
53857;SDS011;39763;51.188;6.690;2022-08-19T01:44:13;19.17;;;14.90;;
53857;SDS011;39763;51.188;6.690;2022-08-19T01:45:49;21.25;;;16.80;;
53857;SDS011;39763;51.188;6.690;2022-08-19T01:47:22;21.23;;;17.00;;
53857;SDS011;39763;51.188;6.690;2022-08-19T01:48:54;20.52;;;15.38;;
53857;SDS011;39763;51.188;6.690;2022-08-19T01:50:25;20.80;;;16.33;;
53857;SDS011;39763;51.188;6.690;2022-08-19T01:51:59;20.08;;;15.90;;
53857;SDS011;39763;51.188;6.690;2022-08-19T01:53:31;22.10;;;17.30;;
53857;SDS011;39763;51.188;6.690;2022-08-19T01:55:06;21.17;;;16.73;;
53857;SDS011;39763;51.188;6.690;2022-08-19T01:56:39;21.55;;;16.40;;
53857;SDS011;39763;51.188;6.690;2022-08-19T01:58:12;23.52;;;18.50;;
53857;SDS011;39763;51.188;6.690;2022-08-19T01:59:46;21.65;;;16.52;;
53857;SDS011;39763;51.188;6.690;2022-08-19T02:01:17;24.35;;;18.83;;
53857;SDS011;39763;51.188;6.690;2022-08-19T02:02:50;26.17;;;18.13;;
53857;SDS011;39763;51.188;6.690;2022-08-19T02:04:22;25.08;;;19.90;;
53857;SDS011;39763;51.188;6.690;2022-08-19T02:05:55;26.15;;;20.33;;
53857;SDS011;39763;51.188;6.690;2022-08-19T02:07:27;29.00;;;20.58;;
53857;SDS011;39763;51.188;6.690;2022-08-19T02:09:00;26.10;;;20.08;;
53857;SDS011;39763;51.188;6.690;2022-08-19T02:10:37;26.70;;;20.92;;
53857;SDS011;39763;51.188;6.690;2022-08-19T02:12:10;24.85;;;19.95;;
53857;SDS011;39763;51.188;6.690;2022-08-19T02:13:42;26.17;;;19.52;;
53857;SDS011;39763;51.188;6.690;2022-08-19T02:15:14;26.80;;;20.63;;
53857;SDS011;39763;51.188;6.690;2022-08-19T02:16:45;26.58;;;20.73;;
53857;SDS011;39763;51.188;6.690;2022-08-19T02:18:17;23.23;;;19.38;;
53857;SDS011;39763;51.188;6.690;2022-08-19T02:19:49;26.30;;;20.45;;
53857;SDS011;39763;51.188;6.690;2022-08-19T02:21:21;25.20;;;20.77;;
53857;SDS011;39763;51.188;6.690;2022-08-19T02:22:54;28.50;;;22.08;;
53857;SDS011;39763;51.188;6.690;2022-08-19T02:24:26;29.65;;;22.08;;
53857;SDS011;39763;51.188;6.690;2022-08-19T02:26:00;27.85;;;22.02;;
53857;SDS011;39763;51.188;6.690;2022-08-19T02:27:31;26.02;;;21.85;;
53857;SDS011;39763;51.188;6.690;2022-08-19T02:29:04;27.35;;;22.02;;
53857;SDS011;39763;51.188;6.690;2022-08-19T02:30:36;27.85;;;22.42;;
53857;SDS011;39763;51.188;6.690;2022-08-19T02:32:09;27.73;;;21.85;;
53857;SDS011;39763;51.188;6.690;2022-08-19T02:33:41;29.52;;;23.52;;
53857;SDS011;39763;51.188;6.690;2022-08-19T02:35:13;29.10;;;22.25;;
53857;SDS011;39763;51.188;6.690;2022-08-19T02:36:45;29.35;;;22.60;;
53857;SDS011;39763;51.188;6.690;2022-08-19T02:38:22;28.60;;;22.90;;
53857;SDS011;39763;51.188;6.690;2022-08-19T02:39:56;26.80;;;21.55;;
53857;SDS011;39763;51.188;6.690;2022-08-19T02:41:31;29.98;;;23.92;;
53857;SDS011;39763;51.188;6.690;2022-08-19T02:43:06;30.27;;;23.42;;
53857;SDS011;39763;51.188;6.690;2022-08-19T02:44:39;28.92;;;23.23;;
53857;SDS011;39763;51.188;6.690;2022-08-19T02:46:12;30.63;;;23.27;;
53857;SDS011;39763;51.188;6.690;2022-08-19T02:47:45;30.08;;;23.25;;
53857;SDS011;39763;51.188;6.690;2022-08-19T02:49:16;29.40;;;22.60;;
53857;SDS011;39763;51.188;6.690;2022-08-19T02:50:49;32.88;;;24.70;;
53857;SDS011;39763;51.188;6.690;2022-08-19T02:52:26;31.52;;;23.40;;
53857;SDS011;39763;51.188;6.690;2022-08-19T02:53:58;28.95;;;23.88;;
53857;SDS011;39763;51.188;6.690;2022-08-19T02:55:31;27.33;;;21.48;;
53857;SDS011;39763;51.188;6.690;2022-08-19T02:57:17;28.90;;;22.02;;
53857;SDS011;39763;51.188;6.690;2022-08-19T02:58:49;28.80;;;21.35;;
53857;SDS011;39763;51.188;6.690;2022-08-19T03:00:23;32.00;;;24.25;;
53857;SDS011;39763;51.188;6.690;2022-08-19T03:01:55;28.98;;;22.83;;
53857;SDS011;39763;51.188;6.690;2022-08-19T03:03:27;32.15;;;19.73;;
53857;SDS011;39763;51.188;6.690;2022-08-19T03:04:58;29.48;;;22.38;;
53857;SDS011;39763;51.188;6.690;2022-08-19T03:06:30;23.60;;;18.10;;
53857;SDS011;39763;51.188;6.690;2022-08-19T03:08:03;27.08;;;21.48;;
53857;SDS011;39763;51.188;6.690;2022-08-19T03:09:36;28.48;;;20.92;;
53857;SDS011;39763;51.188;6.690;2022-08-19T03:11:12;27.25;;;21.58;;
53857;SDS011;39763;51.188;6.690;2022-08-19T03:12:46;27.25;;;21.67;;
53857;SDS011;39763;51.188;6.690;2022-08-19T03:14:18;29.92;;;23.35;;
53857;SDS011;39763;51.188;6.690;2022-08-19T03:15:50;26.02;;;20.80;;
53857;SDS011;39763;51.188;6.690;2022-08-19T03:17:22;29.23;;;23.75;;
53857;SDS011;39763;51.188;6.690;2022-08-19T03:18:55;31.67;;;25.15;;
53857;SDS011;39763;51.188;6.690;2022-08-19T03:20:31;34.00;;;25.27;;
53857;SDS011;39763;51.188;6.690;2022-08-19T03:22:02;30.95;;;25.10;;
53857;SDS011;39763;51.188;6.690;2022-08-19T03:23:35;32.40;;;24.88;;
53857;SDS011;39763;51.188;6.690;2022-08-19T03:25:07;31.30;;;25.30;;
53857;SDS011;39763;51.188;6.690;2022-08-19T03:26:41;34.92;;;25.58;;
53857;SDS011;39763;51.188;6.690;2022-08-19T03:28:15;35.47;;;26.58;;
53857;SDS011;39763;51.188;6.690;2022-08-19T03:29:47;32.03;;;25.90;;
53857;SDS011;39763;51.188;6.690;2022-08-19T03:31:20;32.47;;;25.25;;
53857;SDS011;39763;51.188;6.690;2022-08-19T03:33:13;34.08;;;24.52;;
53857;SDS011;39763;51.188;6.690;2022-08-19T03:34:48;33.38;;;24.25;;
53857;SDS011;39763;51.188;6.690;2022-08-19T03:36:23;30.73;;;24.67;;
53857;SDS011;39763;51.188;6.690;2022-08-19T03:37:57;30.38;;;24.70;;
53857;SDS011;39763;51.188;6.690;2022-08-19T03:39:29;32.53;;;24.83;;
53857;SDS011;39763;51.188;6.690;2022-08-19T03:41:02;32.67;;;25.27;;
53857;SDS011;39763;51.188;6.690;2022-08-19T03:42:37;36.45;;;27.65;;
53857;SDS011;39763;51.188;6.690;2022-08-19T03:44:30;34.28;;;26.33;;
53857;SDS011;39763;51.188;6.690;2022-08-19T03:46:04;34.88;;;27.30;;
53857;SDS011;39763;51.188;6.690;2022-08-19T03:47:38;33.45;;;25.00;;
53857;SDS011;39763;51.188;6.690;2022-08-19T03:49:09;34.17;;;25.40;;
53857;SDS011;39763;51.188;6.690;2022-08-19T03:50:44;39.65;;;28.70;;
53857;SDS011;39763;51.188;6.690;2022-08-19T03:52:16;35.63;;;27.85;;
53857;SDS011;39763;51.188;6.690;2022-08-19T03:53:48;37.95;;;29.17;;
53857;SDS011;39763;51.188;6.690;2022-08-19T03:55:20;41.85;;;29.55;;
53857;SDS011;39763;51.188;6.690;2022-08-19T03:56:52;41.25;;;30.00;;
53857;SDS011;39763;51.188;6.690;2022-08-19T03:58:25;37.65;;;28.42;;
53857;SDS011;39763;51.188;6.690;2022-08-19T04:00:01;36.35;;;27.13;;
53857;SDS011;39763;51.188;6.690;2022-08-19T04:01:44;42.20;;;29.85;;
53857;SDS011;39763;51.188;6.690;2022-08-19T04:03:16;37.20;;;28.25;;
53857;SDS011;39763;51.188;6.690;2022-08-19T04:04:49;35.65;;;27.73;;
53857;SDS011;39763;51.188;6.690;2022-08-19T04:06:26;42.22;;;32.35;;
53857;SDS011;39763;51.188;6.690;2022-08-19T04:07:59;42.70;;;32.30;;
53857;SDS011;39763;51.188;6.690;2022-08-19T04:09:32;40.00;;;31.63;;
53857;SDS011;39763;51.188;6.690;2022-08-19T04:11:06;44.45;;;32.88;;
53857;SDS011;39763;51.188;6.690;2022-08-19T04:12:39;42.85;;;31.50;;
53857;SDS011;39763;51.188;6.690;2022-08-19T04:14:11;44.05;;;33.40;;
53857;SDS011;39763;51.188;6.690;2022-08-19T04:15:46;43.78;;;32.47;;
53857;SDS011;39763;51.188;6.690;2022-08-19T04:17:18;44.28;;;32.67;;
53857;SDS011;39763;51.188;6.690;2022-08-19T04:18:50;43.80;;;33.40;;
53857;SDS011;39763;51.188;6.690;2022-08-19T04:20:22;43.65;;;33.22;;
53857;SDS011;39763;51.188;6.690;2022-08-19T04:21:53;52.55;;;40.00;;
53857;SDS011;39763;51.188;6.690;2022-08-19T04:23:26;44.72;;;34.63;;
53857;SDS011;39763;51.188;6.690;2022-08-19T04:24:59;45.95;;;33.95;;
53857;SDS011;39763;51.188;6.690;2022-08-19T04:26:32;45.92;;;33.65;;
53857;SDS011;39763;51.188;6.690;2022-08-19T04:28:06;42.25;;;31.55;;
53857;SDS011;39763;51.188;6.690;2022-08-19T04:29:38;44.13;;;32.75;;
53857;SDS011;39763;51.188;6.690;2022-08-19T04:31:14;43.50;;;32.67;;
53857;SDS011;39763;51.188;6.690;2022-08-19T04:32:46;44.17;;;31.73;;
53857;SDS011;39763;51.188;6.690;2022-08-19T04:34:19;41.75;;;31.50;;
53857;SDS011;39763;51.188;6.690;2022-08-19T04:35:55;41.90;;;32.13;;
53857;SDS011;39763;51.188;6.690;2022-08-19T04:37:27;44.38;;;32.63;;
53857;SDS011;39763;51.188;6.690;2022-08-19T04:39:06;42.58;;;31.45;;
53857;SDS011;39763;51.188;6.690;2022-08-19T04:40:39;44.05;;;33.20;;
53857;SDS011;39763;51.188;6.690;2022-08-19T04:42:31;43.85;;;33.45;;
53857;SDS011;39763;51.188;6.690;2022-08-19T04:44:12;42.28;;;32.00;;
53857;SDS011;39763;51.188;6.690;2022-08-19T04:45:44;43.45;;;32.47;;
53857;SDS011;39763;51.188;6.690;2022-08-19T04:47:17;41.78;;;31.17;;
53857;SDS011;39763;51.188;6.690;2022-08-19T04:49:09;43.80;;;31.30;;
53857;SDS011;39763;51.188;6.690;2022-08-19T04:50:44;40.60;;;29.95;;
53857;SDS011;39763;51.188;6.690;2022-08-19T04:52:15;35.90;;;26.98;;
53857;SDS011;39763;51.188;6.690;2022-08-19T04:53:47;36.92;;;26.92;;
53857;SDS011;39763;51.188;6.690;2022-08-19T04:55:19;30.40;;;23.73;;
53857;SDS011;39763;51.188;6.690;2022-08-19T04:56:51;42.67;;;32.22;;
53857;SDS011;39763;51.188;6.690;2022-08-19T04:58:24;41.17;;;30.63;;
53857;SDS011;39763;51.188;6.690;2022-08-19T04:59:57;39.70;;;30.92;;
53857;SDS011;39763;51.188;6.690;2022-08-19T05:01:30;31.92;;;22.90;;
53857;SDS011;39763;51.188;6.690;2022-08-19T05:03:05;45.88;;;34.05;;
53857;SDS011;39763;51.188;6.690;2022-08-19T05:04:38;24.45;;;16.95;;
53857;SDS011;39763;51.188;6.690;2022-08-19T05:06:11;22.02;;;16.45;;
53857;SDS011;39763;51.188;6.690;2022-08-19T05:07:45;29.83;;;22.52;;
53857;SDS011;39763;51.188;6.690;2022-08-19T05:09:16;47.28;;;34.97;;
53857;SDS011;39763;51.188;6.690;2022-08-19T05:10:49;48.92;;;35.88;;
53857;SDS011;39763;51.188;6.690;2022-08-19T05:12:22;49.25;;;37.55;;
53857;SDS011;39763;51.188;6.690;2022-08-19T05:13:59;47.90;;;36.97;;
53857;SDS011;39763;51.188;6.690;2022-08-19T05:15:32;43.60;;;33.28;;
53857;SDS011;39763;51.188;6.690;2022-08-19T05:17:04;47.58;;;36.47;;
53857;SDS011;39763;51.188;6.690;2022-08-19T05:18:57;44.60;;;33.80;;
53857;SDS011;39763;51.188;6.690;2022-08-19T05:20:47;51.53;;;38.83;;
53857;SDS011;39763;51.188;6.690;2022-08-19T05:22:38;49.63;;;36.33;;
53857;SDS011;39763;51.188;6.690;2022-08-19T05:24:10;49.38;;;37.28;;
53857;SDS011;39763;51.188;6.690;2022-08-19T05:25:43;48.72;;;35.85;;
53857;SDS011;39763;51.188;6.690;2022-08-19T05:27:15;51.20;;;39.45;;
53857;SDS011;39763;51.188;6.690;2022-08-19T05:28:47;55.00;;;38.90;;
53857;SDS011;39763;51.188;6.690;2022-08-19T05:30:24;38.15;;;25.77;;
53857;SDS011;39763;51.188;6.690;2022-08-19T05:32:16;32.65;;;24.88;;
53857;SDS011;39763;51.188;6.690;2022-08-19T05:33:48;32.95;;;24.13;;
53857;SDS011;39763;51.188;6.690;2022-08-19T05:35:21;30.70;;;23.67;;
53857;SDS011;39763;51.188;6.690;2022-08-19T05:36:56;33.25;;;25.27;;
53857;SDS011;39763;51.188;6.690;2022-08-19T05:38:29;37.47;;;27.25;;
53857;SDS011;39763;51.188;6.690;2022-08-19T05:40:01;47.78;;;35.83;;
53857;SDS011;39763;51.188;6.690;2022-08-19T05:41:34;46.88;;;33.55;;
53857;SDS011;39763;51.188;6.690;2022-08-19T05:43:06;39.08;;;26.40;;
53857;SDS011;39763;51.188;6.690;2022-08-19T05:44:40;38.30;;;27.65;;
53857;SDS011;39763;51.188;6.690;2022-08-19T05:46:16;35.25;;;25.52;;
53857;SDS011;39763;51.188;6.690;2022-08-19T05:47:58;34.47;;;25.35;;
53857;SDS011;39763;51.188;6.690;2022-08-19T05:49:30;35.25;;;26.33;;
53857;SDS011;39763;51.188;6.690;2022-08-19T05:51:05;36.45;;;27.98;;
53857;SDS011;39763;51.188;6.690;2022-08-19T05:52:39;32.97;;;24.95;;
53857;SDS011;39763;51.188;6.690;2022-08-19T05:54:20;30.15;;;24.00;;
53857;SDS011;39763;51.188;6.690;2022-08-19T05:55:54;35.25;;;27.83;;
53857;SDS011;39763;51.188;6.690;2022-08-19T05:57:26;43.53;;;33.42;;
53857;SDS011;39763;51.188;6.690;2022-08-19T05:59:00;30.05;;;23.23;;
53857;SDS011;39763;51.188;6.690;2022-08-19T06:00:32;34.67;;;26.58;;
53857;SDS011;39763;51.188;6.690;2022-08-19T06:02:04;33.22;;;26.30;;
53857;SDS011;39763;51.188;6.690;2022-08-19T06:03:37;32.72;;;25.52;;
53857;SDS011;39763;51.188;6.690;2022-08-19T06:05:10;31.52;;;23.60;;
53857;SDS011;39763;51.188;6.690;2022-08-19T06:06:44;31.33;;;24.73;;
53857;SDS011;39763;51.188;6.690;2022-08-19T06:08:16;34.25;;;27.50;;
53857;SDS011;39763;51.188;6.690;2022-08-19T06:09:49;32.05;;;25.67;;
53857;SDS011;39763;51.188;6.690;2022-08-19T06:11:33;47.20;;;36.10;;
53857;SDS011;39763;51.188;6.690;2022-08-19T06:13:06;43.95;;;33.25;;
53857;SDS011;39763;51.188;6.690;2022-08-19T06:14:37;48.60;;;37.30;;
53857;SDS011;39763;51.188;6.690;2022-08-19T06:16:12;38.38;;;30.70;;
53857;SDS011;39763;51.188;6.690;2022-08-19T06:17:44;47.58;;;36.28;;
53857;SDS011;39763;51.188;6.690;2022-08-19T06:19:16;35.08;;;26.08;;
53857;SDS011;39763;51.188;6.690;2022-08-19T06:20:50;32.28;;;25.00;;
53857;SDS011;39763;51.188;6.690;2022-08-19T06:22:27;39.15;;;26.73;;
53857;SDS011;39763;51.188;6.690;2022-08-19T06:23:59;31.50;;;23.70;;
53857;SDS011;39763;51.188;6.690;2022-08-19T06:25:31;46.28;;;35.80;;
53857;SDS011;39763;51.188;6.690;2022-08-19T06:27:03;46.33;;;35.75;;
53857;SDS011;39763;51.188;6.690;2022-08-19T06:28:36;46.17;;;34.70;;
53857;SDS011;39763;51.188;6.690;2022-08-19T06:30:14;44.55;;;32.67;;
53857;SDS011;39763;51.188;6.690;2022-08-19T06:31:49;47.05;;;34.63;;
53857;SDS011;39763;51.188;6.690;2022-08-19T06:33:22;46.42;;;34.45;;
53857;SDS011;39763;51.188;6.690;2022-08-19T06:34:54;42.33;;;31.30;;
53857;SDS011;39763;51.188;6.690;2022-08-19T06:36:27;37.72;;;29.58;;
53857;SDS011;39763;51.188;6.690;2022-08-19T06:38:04;44.63;;;33.85;;
53857;SDS011;39763;51.188;6.690;2022-08-19T06:39:37;31.50;;;23.33;;
53857;SDS011;39763;51.188;6.690;2022-08-19T06:41:11;36.92;;;27.60;;
53857;SDS011;39763;51.188;6.690;2022-08-19T06:42:42;44.40;;;31.73;;
53857;SDS011;39763;51.188;6.690;2022-08-19T06:44:26;45.15;;;32.67;;
53857;SDS011;39763;51.188;6.690;2022-08-19T06:46:02;42.55;;;31.52;;
53857;SDS011;39763;51.188;6.690;2022-08-19T06:47:36;40.65;;;31.02;;
53857;SDS011;39763;51.188;6.690;2022-08-19T06:49:08;46.03;;;30.63;;
53857;SDS011;39763;51.188;6.690;2022-08-19T06:50:44;43.47;;;29.65;;
53857;SDS011;39763;51.188;6.690;2022-08-19T06:52:16;40.50;;;29.63;;
53857;SDS011;39763;51.188;6.690;2022-08-19T06:53:50;42.53;;;31.00;;
53857;SDS011;39763;51.188;6.690;2022-08-19T06:55:23;40.15;;;29.33;;
53857;SDS011;39763;51.188;6.690;2022-08-19T06:56:55;41.28;;;29.80;;
53857;SDS011;39763;51.188;6.690;2022-08-19T06:58:27;45.08;;;31.63;;
53857;SDS011;39763;51.188;6.690;2022-08-19T07:00:03;42.88;;;32.00;;
53857;SDS011;39763;51.188;6.690;2022-08-19T07:01:46;47.22;;;32.08;;
53857;SDS011;39763;51.188;6.690;2022-08-19T07:03:19;40.22;;;29.25;;
53857;SDS011;39763;51.188;6.690;2022-08-19T07:04:52;42.95;;;31.33;;
53857;SDS011;39763;51.188;6.690;2022-08-19T07:06:24;43.85;;;31.77;;
53857;SDS011;39763;51.188;6.690;2022-08-19T07:08:14;41.47;;;29.95;;
53857;SDS011;39763;51.188;6.690;2022-08-19T07:09:48;42.17;;;30.25;;
53857;SDS011;39763;51.188;6.690;2022-08-19T07:11:31;42.78;;;28.80;;
53857;SDS011;39763;51.188;6.690;2022-08-19T07:13:04;41.15;;;30.10;;
53857;SDS011;39763;51.188;6.690;2022-08-19T07:14:37;40.30;;;29.10;;
53857;SDS011;39763;51.188;6.690;2022-08-19T07:16:11;39.13;;;28.77;;
53857;SDS011;39763;51.188;6.690;2022-08-19T07:17:49;40.08;;;28.33;;
53857;SDS011;39763;51.188;6.690;2022-08-19T07:19:24;39.42;;;27.48;;
53857;SDS011;39763;51.188;6.690;2022-08-19T07:21:02;40.35;;;27.38;;
53857;SDS011;39763;51.188;6.690;2022-08-19T07:22:39;40.25;;;27.70;;
53857;SDS011;39763;51.188;6.690;2022-08-19T07:24:11;37.35;;;27.33;;
53857;SDS011;39763;51.188;6.690;2022-08-19T07:25:45;40.10;;;27.60;;
53857;SDS011;39763;51.188;6.690;2022-08-19T07:27:23;38.13;;;26.90;;
53857;SDS011;39763;51.188;6.690;2022-08-19T07:28:55;36.15;;;26.40;;
53857;SDS011;39763;51.188;6.690;2022-08-19T07:30:28;35.35;;;26.67;;
53857;SDS011;39763;51.188;6.690;2022-08-19T07:32:02;34.85;;;25.98;;
53857;SDS011;39763;51.188;6.690;2022-08-19T07:33:35;36.47;;;26.65;;
53857;SDS011;39763;51.188;6.690;2022-08-19T07:35:07;35.38;;;25.25;;
53857;SDS011;39763;51.188;6.690;2022-08-19T07:36:41;35.60;;;24.20;;
53857;SDS011;39763;51.188;6.690;2022-08-19T07:38:15;36.92;;;26.75;;
53857;SDS011;39763;51.188;6.690;2022-08-19T07:39:47;36.65;;;26.23;;
53857;SDS011;39763;51.188;6.690;2022-08-19T07:41:21;37.80;;;27.40;;
53857;SDS011;39763;51.188;6.690;2022-08-19T07:42:54;40.63;;;28.42;;
53857;SDS011;39763;51.188;6.690;2022-08-19T07:44:26;43.92;;;30.95;;
53857;SDS011;39763;51.188;6.690;2022-08-19T07:45:58;42.97;;;30.17;;
53857;SDS011;39763;51.188;6.690;2022-08-19T07:47:30;43.17;;;31.10;;
53857;SDS011;39763;51.188;6.690;2022-08-19T07:49:21;47.30;;;31.75;;
53857;SDS011;39763;51.188;6.690;2022-08-19T07:50:53;47.80;;;32.38;;
53857;SDS011;39763;51.188;6.690;2022-08-19T07:52:28;53.40;;;36.10;;
53857;SDS011;39763;51.188;6.690;2022-08-19T07:54:00;46.58;;;33.05;;
53857;SDS011;39763;51.188;6.690;2022-08-19T07:55:32;49.45;;;33.92;;
53857;SDS011;39763;51.188;6.690;2022-08-19T07:57:15;44.83;;;31.52;;
53857;SDS011;39763;51.188;6.690;2022-08-19T07:58:48;47.70;;;33.88;;
53857;SDS011;39763;51.188;6.690;2022-08-19T08:00:22;51.22;;;36.08;;
53857;SDS011;39763;51.188;6.690;2022-08-19T08:01:55;49.00;;;35.28;;
53857;SDS011;39763;51.188;6.690;2022-08-19T08:03:28;54.20;;;35.20;;
53857;SDS011;39763;51.188;6.690;2022-08-19T08:05:19;52.35;;;36.50;;
53857;SDS011;39763;51.188;6.690;2022-08-19T08:07:14;57.80;;;39.35;;
53857;SDS011;39763;51.188;6.690;2022-08-19T08:09:05;61.10;;;39.42;;
53857;SDS011;39763;51.188;6.690;2022-08-19T08:10:46;58.03;;;38.53;;
53857;SDS011;39763;51.188;6.690;2022-08-19T08:12:27;55.30;;;38.88;;
53857;SDS011;39763;51.188;6.690;2022-08-19T08:14:05;61.70;;;41.42;;
53857;SDS011;39763;51.188;6.690;2022-08-19T08:15:57;55.53;;;38.03;;
53857;SDS011;39763;51.188;6.690;2022-08-19T08:17:30;56.83;;;36.88;;
53857;SDS011;39763;51.188;6.690;2022-08-19T08:19:22;54.00;;;35.97;;
53857;SDS011;39763;51.188;6.690;2022-08-19T08:20:56;50.15;;;34.85;;
53857;SDS011;39763;51.188;6.690;2022-08-19T08:22:28;48.75;;;33.47;;
53857;SDS011;39763;51.188;6.690;2022-08-19T08:24:27;47.45;;;34.47;;
53857;SDS011;39763;51.188;6.690;2022-08-19T08:26:02;46.92;;;34.35;;
53857;SDS011;39763;51.188;6.690;2022-08-19T08:27:36;48.15;;;33.60;;
53857;SDS011;39763;51.188;6.690;2022-08-19T08:29:10;48.25;;;33.67;;
53857;SDS011;39763;51.188;6.690;2022-08-19T08:30:44;44.55;;;32.97;;
53857;SDS011;39763;51.188;6.690;2022-08-19T08:32:19;45.28;;;32.25;;
53857;SDS011;39763;51.188;6.690;2022-08-19T08:33:51;46.55;;;32.78;;
53857;SDS011;39763;51.188;6.690;2022-08-19T08:35:23;49.67;;;35.22;;
53857;SDS011;39763;51.188;6.690;2022-08-19T08:36:55;49.00;;;34.92;;
53857;SDS011;39763;51.188;6.690;2022-08-19T08:38:27;50.58;;;34.90;;
53857;SDS011;39763;51.188;6.690;2022-08-19T08:40:09;48.03;;;33.58;;
53857;SDS011;39763;51.188;6.690;2022-08-19T08:41:51;47.85;;;33.10;;
53857;SDS011;39763;51.188;6.690;2022-08-19T08:43:31;45.10;;;32.17;;
53857;SDS011;39763;51.188;6.690;2022-08-19T08:45:08;40.55;;;28.85;;
53857;SDS011;39763;51.188;6.690;2022-08-19T08:46:47;43.38;;;29.52;;
53857;SDS011;39763;51.188;6.690;2022-08-19T08:48:24;41.97;;;29.30;;
53857;SDS011;39763;51.188;6.690;2022-08-19T08:50:05;40.60;;;28.77;;
53857;SDS011;39763;51.188;6.690;2022-08-19T08:51:43;39.45;;;28.70;;
53857;SDS011;39763;51.188;6.690;2022-08-19T08:53:30;41.00;;;28.20;;
53857;SDS011;39763;51.188;6.690;2022-08-19T08:55:10;44.55;;;29.92;;
53857;SDS011;39763;51.188;6.690;2022-08-19T08:56:44;41.40;;;28.33;;
53857;SDS011;39763;51.188;6.690;2022-08-19T08:58:18;38.95;;;28.38;;
53857;SDS011;39763;51.188;6.690;2022-08-19T08:59:57;42.30;;;29.20;;
53857;SDS011;39763;51.188;6.690;2022-08-19T09:01:31;46.05;;;31.98;;
53857;SDS011;39763;51.188;6.690;2022-08-19T09:03:04;43.03;;;30.33;;
53857;SDS011;39763;51.188;6.690;2022-08-19T09:04:48;43.85;;;28.40;;
53857;SDS011;39763;51.188;6.690;2022-08-19T09:06:22;44.28;;;29.60;;
53857;SDS011;39763;51.188;6.690;2022-08-19T09:08:02;40.80;;;26.40;;
53857;SDS011;39763;51.188;6.690;2022-08-19T09:09:38;44.78;;;28.10;;
53857;SDS011;39763;51.188;6.690;2022-08-19T09:11:22;39.45;;;27.92;;
53857;SDS011;39763;51.188;6.690;2022-08-19T09:13:16;42.63;;;26.70;;
53857;SDS011;39763;51.188;6.690;2022-08-19T09:15:03;40.47;;;25.27;;